createdAt,value
2022-12-23T00:01:49.498Z,1.65
2022-12-23T00:04:16.007Z,1.60
2022-12-23T00:06:42.401Z,1.90
2022-12-23T00:09:08.769Z,1.20
2022-12-23T00:11:35.199Z,0.98
2022-12-23T00:14:21.864Z,1.10
2022-12-23T00:16:50.533Z,0.93
2022-12-23T00:19:17.199Z,0.60
2022-12-23T00:21:43.548Z,0.50
2022-12-23T00:24:11.906Z,0.50
2022-12-23T00:26:39.392Z,1.10
2022-12-23T00:29:05.802Z,0.65
2022-12-23T00:31:32.297Z,0.60
2022-12-23T00:33:58.768Z,0.55
2022-12-23T00:36:27.511Z,0.70
2022-12-23T00:39:13.829Z,0.60
2022-12-23T00:41:58.659Z,0.60
2022-12-23T00:44:25.281Z,0.60
2022-12-23T00:46:51.640Z,0.60
2022-12-23T00:49:38.239Z,0.50
2022-12-23T00:52:06.129Z,0.70
2022-12-23T00:54:32.559Z,0.63
2022-12-23T00:57:00.152Z,0.50
2022-12-23T00:59:26.656Z,0.70
2022-12-23T01:02:11.623Z,0.88
2022-12-23T01:04:57.313Z,0.60
2022-12-23T01:07:24.073Z,0.73
2022-12-23T01:09:50.529Z,0.70
2022-12-23T01:12:16.945Z,0.60
2022-12-23T01:14:43.306Z,0.50
2022-12-23T01:17:09.788Z,0.40
2022-12-23T01:19:36.408Z,0.70
2022-12-23T01:22:03.163Z,0.60
2022-12-23T01:24:30.731Z,0.50
2022-12-23T01:26:57.194Z,0.60
2022-12-23T01:29:23.827Z,0.60
2022-12-23T01:31:50.256Z,0.50
2022-12-23T01:34:16.790Z,0.50
2022-12-23T01:36:43.148Z,0.50
2022-12-23T01:39:09.510Z,0.50
2022-12-23T01:41:54.558Z,0.40
2022-12-23T01:44:50.541Z,0.40
2022-12-23T01:47:20.364Z,0.50
2022-12-23T01:49:48.778Z,0.30
2022-12-23T01:52:15.270Z,0.40
2022-12-23T01:54:42.944Z,0.40
2022-12-23T01:57:09.486Z,0.30
2022-12-23T01:59:54.864Z,0.30
2022-12-23T02:02:40.864Z,0.30
2022-12-23T02:05:08.332Z,0.80
2022-12-23T02:07:54.338Z,0.50
2022-12-23T02:10:26.276Z,0.60
2022-12-23T02:13:16.132Z,0.77
2022-12-23T02:16:17.924Z,2.33
2022-12-23T02:18:47.052Z,3.45
2022-12-23T02:21:30.676Z,2.00
2022-12-23T02:24:34.162Z,2.35
2022-12-23T02:27:16.885Z,2.13
2022-12-23T02:30:04.343Z,0.80
2022-12-23T02:32:43.321Z,0.25
2022-12-23T02:35:42.936Z,0.30
2022-12-23T02:38:13.782Z,0.20
2022-12-23T02:40:49.168Z,0.20
2022-12-23T02:43:24.691Z,0.20
2022-12-23T02:46:00.362Z,0.20
2022-12-23T02:48:38.748Z,0.20
2022-12-23T02:51:07.696Z,0.30
2022-12-23T02:53:39.615Z,0.30
2022-12-23T02:56:08.779Z,0.30
2022-12-23T02:58:43.307Z,0.20
2022-12-23T03:01:13.120Z,0.30
2022-12-23T03:03:40.921Z,0.30
2022-12-23T03:06:17.542Z,0.30
2022-12-23T03:08:45.540Z,0.28
2022-12-23T03:11:14.871Z,0.20
2022-12-23T03:13:53.213Z,0.30
2022-12-23T03:16:27.099Z,0.30
2022-12-23T03:19:02.819Z,0.30
2022-12-23T03:21:54.635Z,0.40
2022-12-23T03:24:40.733Z,0.47
2022-12-23T03:27:30.549Z,0.30
2022-12-23T03:30:01.883Z,0.30
2022-12-23T03:32:32.546Z,0.40
2022-12-23T03:35:01.074Z,0.30
2022-12-23T03:37:30.311Z,0.40
2022-12-23T03:40:17.039Z,0.40
2022-12-23T03:42:46.553Z,0.38
2022-12-23T03:48:15.411Z,0.40
2022-12-23T03:50:44.060Z,0.38
2022-12-23T03:53:16.467Z,0.40
2022-12-23T03:55:51.506Z,0.35
2022-12-23T03:58:30.779Z,0.30
2022-12-23T04:01:09.890Z,0.40
2022-12-23T04:03:54.660Z,0.30
2022-12-23T04:06:23.858Z,0.30
2022-12-23T04:08:51.085Z,0.30
2022-12-23T04:11:17.506Z,0.30
2022-12-23T04:13:43.929Z,0.40
2022-12-23T04:16:10.638Z,0.30
2022-12-23T04:18:37.054Z,0.28
2022-12-23T04:21:03.638Z,0.30
2022-12-23T04:23:30.002Z,0.20
2022-12-23T04:25:56.504Z,0.30
2022-12-23T04:28:22.885Z,0.40
2022-12-23T04:30:49.282Z,0.40
2022-12-23T04:33:15.689Z,0.40
2022-12-23T04:35:42.049Z,0.37
2022-12-23T04:38:08.384Z,0.38
2022-12-23T04:40:34.755Z,0.40
2022-12-23T04:43:01.110Z,0.40
2022-12-23T04:45:27.504Z,0.40
2022-12-23T04:47:55.149Z,0.37
2022-12-23T04:50:21.564Z,0.30
2022-12-23T04:52:47.947Z,0.40
2022-12-23T04:55:14.315Z,0.38
2022-12-23T04:57:40.689Z,0.30
2022-12-23T05:00:07.742Z,0.20
2022-12-23T05:02:34.375Z,0.30
2022-12-23T05:05:00.836Z,0.30
2022-12-23T05:07:27.214Z,0.30
2022-12-23T05:09:53.584Z,0.22
2022-12-23T05:12:19.971Z,0.30
2022-12-23T05:14:47.138Z,0.40
2022-12-23T05:17:13.540Z,0.30
2022-12-23T05:19:39.877Z,0.30
2022-12-23T05:22:06.216Z,0.40
2022-12-23T05:24:32.569Z,0.30
2022-12-23T05:27:00.426Z,0.40
2022-12-23T05:29:27.476Z,0.40
2022-12-23T05:31:53.893Z,0.20
2022-12-23T05:34:20.575Z,0.40
2022-12-23T05:36:46.941Z,0.30
2022-12-23T05:39:13.517Z,0.30
2022-12-23T05:41:39.888Z,0.40
2022-12-23T05:44:06.244Z,0.30
2022-12-23T05:46:32.757Z,0.30
2022-12-23T05:48:59.363Z,0.50
2022-12-23T05:51:25.812Z,0.45
2022-12-23T05:53:52.189Z,0.40
2022-12-23T05:56:18.582Z,0.40
2022-12-23T05:58:44.913Z,0.47
2022-12-23T06:01:11.276Z,0.37
2022-12-23T06:03:37.791Z,0.30
2022-12-23T06:06:04.698Z,0.40
2022-12-23T06:08:31.046Z,0.40
2022-12-23T06:10:59.668Z,0.30
2022-12-23T06:13:26.125Z,0.30
2022-12-23T06:15:52.479Z,0.30
2022-12-23T06:18:18.826Z,0.30
2022-12-23T06:20:47.137Z,0.40
2022-12-23T06:23:13.831Z,0.35
2022-12-23T06:25:40.207Z,0.40
2022-12-23T06:28:07.882Z,0.40
2022-12-23T06:30:34.461Z,0.65
2022-12-23T06:33:00.819Z,0.82
2022-12-23T06:35:27.168Z,0.65
2022-12-23T06:37:53.549Z,0.60
2022-12-23T06:40:19.937Z,0.50
2022-12-23T06:42:46.379Z,0.45
2022-12-23T06:45:13.308Z,0.45
2022-12-23T06:47:39.710Z,0.30
2022-12-23T06:50:06.583Z,0.30
2022-12-23T06:52:32.968Z,0.30
2022-12-23T06:54:59.311Z,0.30
2022-12-23T06:57:25.739Z,0.30
2022-12-23T06:59:52.088Z,0.55
2022-12-23T07:02:18.627Z,0.40
2022-12-23T07:04:45.114Z,0.40
2022-12-23T07:07:11.518Z,0.30
2022-12-23T07:09:37.874Z,0.40
2022-12-23T07:12:04.507Z,0.40
2022-12-23T07:14:30.900Z,0.43
2022-12-23T07:16:57.421Z,0.40
2022-12-23T07:19:23.861Z,0.40
2022-12-23T07:21:50.255Z,0.30
2022-12-23T07:24:16.992Z,0.50
2022-12-23T07:26:43.346Z,0.70
2022-12-23T07:29:09.715Z,0.50
2022-12-23T07:31:39.368Z,0.40
2022-12-23T07:34:07.438Z,0.50
2022-12-23T07:36:33.826Z,0.40
2022-12-23T07:39:00.175Z,0.50
2022-12-23T07:41:26.569Z,0.40
2022-12-23T07:43:52.917Z,0.40
2022-12-23T07:46:19.408Z,0.30
2022-12-23T07:48:45.777Z,0.20
2022-12-23T07:51:12.257Z,0.20
2022-12-23T07:53:38.750Z,0.30
2022-12-23T07:56:05.668Z,0.30
2022-12-23T07:58:32.114Z,0.30
2022-12-23T08:01:02.934Z,0.30
2022-12-23T08:03:30.365Z,0.30
2022-12-23T08:06:03.097Z,0.30
2022-12-23T08:08:29.912Z,0.30
2022-12-23T08:10:58.578Z,0.20
2022-12-23T08:13:25.068Z,0.30
2022-12-23T08:15:59.371Z,0.23
2022-12-23T08:18:26.504Z,0.22
2022-12-23T08:20:57.890Z,0.20
2022-12-23T08:23:25.843Z,0.38
2022-12-23T08:26:22.440Z,0.90
2022-12-23T08:28:50.516Z,1.20
2022-12-23T08:31:20.531Z,0.88
2022-12-23T08:33:49.504Z,0.55
2022-12-23T08:36:23.092Z,0.50
2022-12-23T08:38:53.166Z,0.30
2022-12-23T08:41:22.517Z,0.40
2022-12-23T08:43:49.544Z,0.80
2022-12-23T08:46:16.000Z,0.60
2022-12-23T08:48:48.662Z,0.60
2022-12-23T08:51:17.176Z,0.50
2022-12-23T08:53:44.354Z,0.60
2022-12-23T08:56:13.762Z,0.93
2022-12-23T08:58:42.899Z,1.70
2022-12-23T09:01:12.153Z,2.13
2022-12-23T09:03:39.633Z,1.13
2022-12-23T09:06:11.467Z,1.90
2022-12-23T09:08:38.290Z,1.30
2022-12-23T09:11:04.908Z,0.80
2022-12-23T09:13:35.566Z,0.90
2022-12-23T09:16:03.645Z,0.68
2022-12-23T09:18:30.082Z,0.40
2022-12-23T09:20:58.677Z,0.52
2022-12-23T09:23:25.127Z,0.38
2022-12-23T09:25:51.487Z,0.40
2022-12-23T09:28:17.843Z,0.45
2022-12-23T09:30:44.232Z,0.50
2022-12-23T09:33:10.639Z,0.50
2022-12-23T09:35:37.042Z,0.57
2022-12-23T09:38:03.445Z,0.60
2022-12-23T09:40:32.910Z,1.02
2022-12-23T09:43:07.244Z,0.70
2022-12-23T09:45:48.742Z,1.00
2022-12-23T09:48:18.873Z,1.67
2022-12-23T09:50:46.616Z,1.60
2022-12-23T09:53:14.686Z,1.42
2022-12-23T09:56:06.414Z,1.50
2022-12-23T09:58:45.624Z,0.80
2022-12-23T10:01:44.864Z,0.95
2022-12-23T10:04:42.080Z,1.27
2022-12-23T10:07:19.846Z,0.90
2022-12-23T10:09:50.040Z,0.40
2022-12-23T10:12:28.293Z,0.50
2022-12-23T10:15:00.738Z,0.30
2022-12-23T10:17:35.117Z,0.40
2022-12-23T10:20:04.334Z,0.38
2022-12-23T10:22:44.921Z,0.47
2022-12-23T10:25:28.205Z,0.50
2022-12-23T10:27:54.596Z,0.38
2022-12-23T10:33:21.792Z,0.70
2022-12-23T10:36:02.941Z,0.70
2022-12-23T10:38:51.020Z,0.63
2022-12-23T10:41:39.095Z,0.80
2022-12-23T10:44:22.788Z,0.65
2022-12-23T10:47:00.062Z,0.77
2022-12-23T10:49:46.720Z,0.70
2022-12-23T10:52:19.392Z,0.90
2022-12-23T10:54:47.360Z,0.80
2022-12-23T10:57:16.685Z,0.85
2022-12-23T10:59:43.279Z,0.88
2022-12-23T11:02:12.898Z,1.40
2022-12-23T11:04:47.834Z,1.20
2022-12-23T11:07:44.493Z,1.20
2022-12-23T11:10:20.803Z,2.25
2022-12-23T11:12:53.028Z,2.22
2022-12-23T11:15:54.728Z,2.10
2022-12-23T11:18:21.496Z,1.75
2022-12-23T11:21:14.252Z,2.20
2022-12-23T11:23:40.606Z,1.98
2022-12-23T11:26:18.943Z,2.00
2022-12-23T11:28:52.120Z,1.60
2022-12-23T11:31:35.125Z,2.25
2022-12-23T11:34:05.683Z,1.73
2022-12-23T11:36:32.923Z,1.70
2022-12-23T11:39:05.352Z,2.28
2022-12-23T11:41:49.812Z,1.87
2022-12-23T11:44:37.724Z,2.40
2022-12-23T11:47:22.309Z,2.40
2022-12-23T11:50:00.451Z,1.30
2022-12-23T11:52:28.907Z,1.50
2022-12-23T11:55:01.747Z,2.00
2022-12-23T11:57:45.898Z,3.50
2022-12-23T12:00:34.599Z,6.15
2022-12-23T12:03:03.493Z,3.70
2022-12-23T12:05:36.895Z,4.32
2022-12-23T12:08:06.907Z,3.53
2022-12-23T12:10:36.369Z,5.85
2022-12-23T12:13:06.922Z,2.90
2022-12-23T12:15:56.274Z,5.25
2022-12-23T12:18:23.505Z,7.20
2022-12-23T12:20:59.066Z,2.03
2022-12-23T12:23:44.168Z,5.30
2022-12-23T12:26:23.284Z,4.63
2022-12-23T12:29:30.874Z,6.93
2022-12-23T12:32:00.203Z,4.95
2022-12-23T12:34:44.140Z,3.27
2022-12-23T12:37:19.801Z,2.25
2022-12-23T12:39:53.944Z,1.85
2022-12-23T12:42:44.165Z,1.70
2022-12-23T12:45:13.462Z,4.15
2022-12-23T12:47:59.960Z,2.90
2022-12-23T12:50:36.237Z,4.63
2022-12-23T12:53:14.116Z,3.40
2022-12-23T12:55:46.161Z,2.75
2022-12-23T12:58:19.592Z,3.10
2022-12-23T13:01:02.791Z,2.53
2022-12-23T13:03:38.090Z,1.95
2022-12-23T13:06:07.746Z,1.83
2022-12-23T13:08:51.286Z,3.20
2022-12-23T13:11:44.943Z,3.17
2022-12-23T13:14:34.549Z,14.60
2022-12-23T13:17:12.262Z,4.50
2022-12-23T13:19:50.701Z,5.50
2022-12-23T13:22:24.588Z,4.25
2022-12-23T13:25:05.857Z,13.93
2022-12-23T13:27:47.206Z,8.17
2022-12-23T13:30:20.004Z,5.88
2022-12-23T13:33:08.943Z,2.10
2022-12-23T13:36:06.080Z,1.42
2022-12-23T13:39:09.549Z,3.20
2022-12-23T13:41:50.367Z,1.97
2022-12-23T13:44:18.624Z,2.30
2022-12-23T13:47:03.705Z,2.55
2022-12-23T13:49:57.636Z,1.45
2022-12-23T13:53:08.966Z,2.30
2022-12-23T13:55:48.623Z,2.10
2022-12-23T13:58:22.432Z,3.78
2022-12-23T14:01:08.557Z,2.90
2022-12-23T14:03:37.465Z,6.45
2022-12-23T14:06:30.242Z,4.80
2022-12-23T14:08:56.670Z,3.47
2022-12-23T14:11:33.822Z,2.28
2022-12-23T14:14:06.275Z,1.80
2022-12-23T14:17:06.213Z,1.63
2022-12-23T14:19:42.329Z,9.82
2022-12-23T14:22:34.344Z,8.67
2022-12-23T14:25:34.516Z,7.50
2022-12-23T14:28:16.027Z,5.95
2022-12-23T14:30:47.019Z,9.98
2022-12-23T14:33:33.902Z,5.88
2022-12-23T14:36:26.169Z,2.10
2022-12-23T14:39:11.005Z,2.20
2022-12-23T14:41:50.679Z,3.35
2022-12-23T14:44:40.931Z,1.75
2022-12-23T14:47:33.778Z,1.52
2022-12-23T14:50:39.717Z,1.50
2022-12-23T14:53:26.673Z,11.02
2022-12-23T14:56:07.897Z,14.43
2022-12-23T14:58:41.349Z,7.90
2022-12-23T15:01:12.928Z,6.95
2022-12-23T15:03:45.860Z,9.43
2022-12-23T15:06:18.150Z,6.53
2022-12-23T15:08:47.415Z,20.33
2022-12-23T15:11:22.828Z,18.55
2022-12-23T15:13:52.100Z,1.20
2022-12-23T15:16:19.187Z,2.87
2022-12-23T15:18:56.014Z,4.03
2022-12-23T15:21:32.231Z,1.30
2022-12-23T15:23:58.725Z,19.38
2022-12-23T15:26:30.196Z,5.90
2022-12-23T15:28:58.976Z,1.83
2022-12-23T15:31:28.991Z,1.75
2022-12-23T15:34:06.933Z,8.70
2022-12-23T15:36:36.853Z,4.10
2022-12-23T15:39:10.074Z,1.77
2022-12-23T15:41:44.434Z,0.90
2022-12-23T15:44:20.132Z,0.88
2022-12-23T15:46:46.625Z,0.32
2022-12-23T15:49:13.065Z,3.55
2022-12-23T15:54:36.799Z,2.50
2022-12-23T15:57:04.458Z,1.52
2022-12-23T15:59:38.595Z,1.80
2022-12-23T16:02:59.711Z,1.10
2022-12-23T16:05:30.309Z,0.47
2022-12-23T16:08:19.355Z,0.50
2022-12-23T16:11:16.183Z,0.40
2022-12-23T16:14:00.189Z,0.40
2022-12-23T16:16:42.420Z,0.40
2022-12-23T16:19:36.900Z,1.13
2022-12-23T16:22:19.998Z,1.10
2022-12-23T16:24:50.453Z,0.60
2022-12-23T16:27:19.672Z,0.47
2022-12-23T16:29:47.813Z,0.60
2022-12-23T16:32:19.155Z,0.50
2022-12-23T16:34:49.953Z,0.70
2022-12-23T16:37:16.441Z,0.70
2022-12-23T16:39:42.852Z,1.35
2022-12-23T16:42:09.275Z,0.60
2022-12-23T16:44:35.658Z,2.38
2022-12-23T16:47:08.486Z,0.63
2022-12-23T16:49:37.212Z,0.68
2022-12-23T16:52:06.301Z,0.60
2022-12-23T16:54:32.685Z,0.50
2022-12-23T16:56:59.170Z,0.40
2022-12-23T16:59:25.955Z,1.80
2022-12-23T17:01:56.566Z,0.70
2022-12-23T17:04:25.959Z,0.55
2022-12-23T17:06:52.368Z,0.50
2022-12-23T17:09:19.050Z,0.60
2022-12-23T17:11:49.032Z,0.80
2022-12-23T17:14:22.172Z,1.60
2022-12-23T17:16:49.240Z,1.60
2022-12-23T17:19:16.292Z,2.20
2022-12-23T17:21:46.923Z,0.40
2022-12-23T17:24:22.274Z,6.53
2022-12-23T17:26:49.077Z,0.85
2022-12-23T17:29:15.524Z,0.38
2022-12-23T17:31:43.539Z,0.40
2022-12-23T17:34:19.703Z,0.43
2022-12-23T17:36:50.385Z,0.37
2022-12-23T17:39:17.844Z,0.52
2022-12-23T17:41:44.278Z,0.30
2022-12-23T17:44:14.108Z,0.40
2022-12-23T17:46:40.668Z,0.40
2022-12-23T17:49:08.103Z,0.40
2022-12-23T17:51:35.034Z,0.40
2022-12-23T17:54:02.097Z,0.30
2022-12-23T17:56:29.023Z,0.90
2022-12-23T17:58:55.446Z,0.75
2022-12-23T18:01:31.409Z,0.50
2022-12-23T18:03:59.704Z,1.00
2022-12-23T18:06:27.957Z,0.60
2022-12-23T18:08:55.200Z,0.68
2022-12-23T18:11:30.214Z,0.55
2022-12-23T18:13:57.005Z,0.70
2022-12-23T18:16:23.417Z,0.70
2022-12-23T18:18:49.892Z,0.70
2022-12-23T18:21:29.226Z,1.00
2022-12-23T18:23:58.667Z,0.95
2022-12-23T18:26:25.362Z,1.03
2022-12-23T18:28:54.003Z,0.60
2022-12-23T18:31:23.946Z,1.05
2022-12-23T18:33:51.145Z,0.90
2022-12-23T18:36:30.339Z,1.00
2022-12-23T18:38:57.210Z,1.47
2022-12-23T18:41:24.831Z,0.88
2022-12-23T18:43:51.755Z,0.90
2022-12-23T18:46:19.996Z,1.80
2022-12-23T18:48:46.699Z,1.13
2022-12-23T18:51:18.216Z,0.80
2022-12-23T18:53:46.003Z,0.90
2022-12-23T18:56:16.853Z,0.90
2022-12-23T18:58:43.233Z,2.05
2022-12-23T19:01:13.633Z,1.85
2022-12-23T19:03:40.611Z,1.67
2022-12-23T19:06:08.740Z,1.52
2022-12-23T19:08:37.137Z,1.45
2022-12-23T19:11:13.312Z,2.55
2022-12-23T19:13:39.904Z,1.52
2022-12-23T19:16:06.436Z,1.37
2022-12-23T19:18:32.937Z,1.38
2022-12-23T19:21:04.172Z,1.10
2022-12-23T19:23:30.569Z,1.10
2022-12-23T19:25:56.957Z,1.33
2022-12-23T19:28:23.748Z,1.77
2022-12-23T19:30:50.453Z,1.88
2022-12-23T19:33:17.226Z,1.33
2022-12-23T19:35:44.433Z,1.00
2022-12-23T19:38:12.110Z,0.98
2022-12-23T19:40:38.599Z,1.00
2022-12-23T19:43:04.950Z,1.23
2022-12-23T19:45:31.454Z,1.45
2022-12-23T19:47:57.802Z,1.23
2022-12-23T19:50:24.308Z,1.02
2022-12-23T19:52:51.539Z,0.90
2022-12-23T19:55:17.976Z,1.10
2022-12-23T19:57:44.317Z,1.48
2022-12-23T20:00:11.195Z,1.10
2022-12-23T20:02:37.797Z,1.90
2022-12-23T20:05:04.620Z,2.30
2022-12-23T20:07:30.952Z,1.83
2022-12-23T20:09:57.301Z,1.20
2022-12-23T20:12:25.267Z,1.60
2022-12-23T20:14:51.724Z,1.00
2022-12-23T20:17:18.097Z,1.00
2022-12-23T20:19:46.442Z,1.00
2022-12-23T20:22:13.072Z,1.00
2022-12-23T20:24:39.455Z,1.00
2022-12-23T20:27:10.913Z,1.10
2022-12-23T20:29:38.382Z,1.33
2022-12-23T20:32:04.978Z,1.35
2022-12-23T20:34:38.347Z,1.00
2022-12-23T20:37:05.456Z,1.00
2022-12-23T20:39:31.846Z,1.00
2022-12-23T20:41:58.228Z,0.90
2022-12-23T20:44:34.668Z,1.00
2022-12-23T20:47:02.663Z,0.68
2022-12-23T20:49:29.239Z,0.77
2022-12-23T20:51:55.632Z,1.00
2022-12-23T20:54:26.381Z,1.00
2022-12-23T20:56:56.343Z,1.00
2022-12-23T20:59:22.690Z,0.80
2022-12-23T21:01:49.264Z,0.93
2022-12-23T21:04:16.418Z,0.85
2022-12-23T21:06:43.004Z,0.80
2022-12-23T21:09:11.576Z,1.60
2022-12-23T21:11:41.134Z,0.88
2022-12-23T21:14:08.074Z,1.00
2022-12-23T21:16:36.957Z,1.48
2022-12-23T21:19:04.706Z,1.00
2022-12-23T21:21:31.854Z,0.85
2022-12-23T21:24:01.361Z,1.27
2022-12-23T21:26:30.235Z,1.35
2022-12-23T21:29:01.417Z,0.73
2022-12-23T21:31:29.631Z,0.80
2022-12-23T21:33:56.367Z,0.68
2022-12-23T21:36:26.131Z,0.60
2022-12-23T21:38:52.609Z,1.33
2022-12-23T21:41:22.098Z,1.10
2022-12-23T21:43:49.358Z,0.97
2022-12-23T21:46:18.191Z,0.80
2022-12-23T21:48:45.219Z,1.00
2022-12-23T21:51:23.411Z,1.08
2022-12-23T21:53:52.976Z,0.75
2022-12-23T21:56:22.231Z,1.30
2022-12-23T21:58:48.580Z,1.10
2022-12-23T22:01:17.966Z,1.30
2022-12-23T22:03:45.852Z,1.80
2022-12-23T22:06:15.135Z,1.08
2022-12-23T22:08:42.207Z,1.13
2022-12-23T22:11:10.630Z,1.00
2022-12-23T22:13:37.836Z,1.20
2022-12-23T22:16:08.720Z,1.27
2022-12-23T22:18:36.247Z,0.93
2022-12-23T22:21:08.389Z,0.97
2022-12-23T22:23:35.835Z,1.23
2022-12-23T22:26:02.396Z,0.90
2022-12-23T22:28:31.335Z,0.95
2022-12-23T22:31:23.857Z,1.30
2022-12-23T22:33:50.265Z,0.90
2022-12-23T22:36:17.227Z,1.20
2022-12-23T22:38:44.026Z,1.08
2022-12-23T22:41:10.893Z,0.70
2022-12-23T22:43:37.843Z,1.13
2022-12-23T22:46:04.878Z,1.30
2022-12-23T22:48:31.390Z,0.88
2022-12-23T22:51:09.390Z,1.10
2022-12-23T22:53:36.576Z,0.75
2022-12-23T22:56:04.517Z,0.95
2022-12-23T22:58:32.317Z,1.20
2022-12-23T23:00:58.918Z,1.30
2022-12-23T23:03:26.247Z,0.98
2022-12-23T23:06:06.879Z,1.45
2022-12-23T23:08:34.501Z,0.77
2022-12-23T23:11:02.681Z,0.90
2022-12-23T23:13:34.423Z,0.70
2022-12-23T23:16:01.721Z,0.93
2022-12-23T23:18:29.873Z,0.85
2022-12-23T23:20:56.757Z,1.15
2022-12-23T23:23:23.189Z,0.90
2022-12-23T23:25:49.558Z,0.93
2022-12-23T23:28:16.389Z,0.75
2022-12-23T23:30:42.816Z,1.00
2022-12-23T23:33:10.203Z,0.75
2022-12-23T23:35:37.016Z,1.00
2022-12-23T23:38:03.458Z,0.80
2022-12-23T23:40:30.119Z,0.80
2022-12-23T23:42:56.478Z,0.80
2022-12-23T23:45:22.878Z,0.63
2022-12-23T23:47:49.304Z,0.80
2022-12-23T23:50:15.674Z,1.00
2022-12-23T23:52:42.022Z,0.90
2022-12-23T23:55:08.891Z,1.17
2022-12-23T23:57:35.262Z,0.60
